Time;durP1;ratioP1;P1;durP2;ratioP2;P2;SDS_P1;SDS_P2;PMS_P1;PMS_P2;Temp;Humidity;BMP_temperature;BMP_pressure;BME280_temperature;BME280_humidity;BME280_pressure;Samples;Min_cycle;Max_cycle;Signal;HPM_P1;HPM_P2
2023/05/11 00:01:51;;;;;;;51.53;38.67;;;;;;;;;;5034445;28;20640;-69
2023/05/11 00:04:17;;;;;;;50.80;39.57;;;;;;;;;;5034615;28;20213;-69
2023/05/11 00:06:43;;;;;;;55.37;41.00;;;;;;;;;;5034120;28;20667;-69
2023/05/11 00:09:10;;;;;;;52.07;39.80;;;;;;;;;;5016242;28;20652;-69
2023/05/11 00:11:36;;;;;;;53.33;41.30;;;;;;;;;;5016202;28;20289;-70
2023/05/11 00:14:02;;;;;;;57.93;41.90;;;;;;;;;;5016232;28;20194;-68
2023/05/11 00:16:29;;;;;;;58.00;43.00;;;;;;;;;;5034099;28;20314;-69
2023/05/11 00:18:55;;;;;;;55.30;43.40;;;;;;;;;;5033955;28;20657;-69
2023/05/11 00:21:21;;;;;;;59.50;44.43;;;;;;;;;;5033859;28;20672;-69
2023/05/11 00:23:47;;;;;;;65.07;43.93;;;;;;;;;;5034314;28;20221;-69
2023/05/11 00:26:13;;;;;;;55.57;41.80;;;;;;;;;;5033828;28;20228;-69
2023/05/11 00:28:39;;;;;;;56.70;43.30;;;;;;;;;;5016395;28;20589;-69
2023/05/11 00:31:05;;;;;;;59.10;43.80;;;;;;;;;;5015988;28;20203;-69
2023/05/11 00:33:31;;;;;;;63.63;45.63;;;;;;;;;;5033599;28;20244;-68
2023/05/11 00:35:57;;;;;;;60.73;43.47;;;;;;;;;;5015798;28;20556;-67
2023/05/11 00:38:23;;;;;;;70.53;44.90;;;;;;;;;;5015882;28;20540;-70
2023/05/11 00:40:49;;;;;;;56.90;42.83;;;;;;;;;;5033321;28;20210;-68
2023/05/11 00:43:16;;;;;;;53.50;42.40;;;;;;;;;;5015808;28;20195;-69
2023/05/11 00:45:44;;;;;;;56.23;44.33;;;;;;;;;;5033667;28;20190;-69
2023/05/11 00:48:10;;;;;;;56.00;43.20;;;;;;;;;;5033539;28;20258;-69
2023/05/11 00:50:36;;;;;;;55.73;42.83;;;;;;;;;;5015719;28;20230;-69
2023/05/11 00:53:02;;;;;;;59.67;42.17;;;;;;;;;;5033518;28;20183;-69
2023/05/11 00:55:28;;;;;;;56.03;42.13;;;;;;;;;;5034014;28;20179;-69
2023/05/11 00:57:54;;;;;;;57.90;43.90;;;;;;;;;;5033324;28;20257;-69
2023/05/11 01:00:20;;;;;;;59.50;43.93;;;;;;;;;;5015619;28;20215;-69
2023/05/11 01:02:46;;;;;;;57.70;43.10;;;;;;;;;;5015670;28;20179;-69
2023/05/11 01:05:12;;;;;;;58.90;43.30;;;;;;;;;;5015643;28;20183;-69
2023/05/11 01:07:43;;;;;;;62.40;44.67;;;;;;;;;;5015579;28;20633;-69
2023/05/11 01:10:42;;;;;;;64.20;44.67;;;;;;;;;;5015325;28;20222;-69
2023/05/11 01:13:14;;;;;;;63.93;43.30;;;;;;;;;;4973210;28;20213;-69
2023/05/11 01:15:51;;;;;;;60.10;44.63;;;;;;;;;;5015424;28;20183;-69
2023/05/11 01:18:24;;;;;;;59.83;42.83;;;;;;;;;;5033646;28;20167;-69
2023/05/11 01:20:52;;;;;;;59.63;43.03;;;;;;;;;;5032983;28;20262;-69
2023/05/11 01:23:40;;;;;;;58.43;42.80;;;;;;;;;;5033066;28;20175;-69
2023/05/11 01:26:07;;;;;;;63.43;43.83;;;;;;;;;;5033177;28;20227;-69
2023/05/11 01:28:32;;;;;;;59.33;44.40;;;;;;;;;;5033299;28;20167;-69
2023/05/11 01:31:06;;;;;;;61.20;42.67;;;;;;;;;;5035144;28;20651;-69
2023/05/11 01:33:33;;;;;;;60.43;41.60;;;;;;;;;;5037410;28;20247;-69
2023/05/11 01:36:05;;;;;;;57.80;42.60;;;;;;;;;;5036901;28;20203;-69
2023/05/11 01:38:33;;;;;;;58.57;41.80;;;;;;;;;;5019014;28;20187;-69
2023/05/11 01:40:59;;;;;;;60.20;42.43;;;;;;;;;;5036773;28;20215;-69
2023/05/11 01:43:27;;;;;;;60.47;41.50;;;;;;;;;;5019008;28;20661;-69
2023/05/11 01:45:55;;;;;;;58.60;39.93;;;;;;;;;;5037005;28;20240;-69
2023/05/11 01:48:23;;;;;;;51.13;39.07;;;;;;;;;;5019072;28;20556;-69
2023/05/11 01:50:50;;;;;;;54.50;39.90;;;;;;;;;;5036888;28;20203;-69
2023/05/11 01:53:16;;;;;;;52.63;38.73;;;;;;;;;;5036703;28;20197;-69
2023/05/11 01:55:43;;;;;;;55.33;37.97;;;;;;;;;;5036724;28;20270;-69
2023/05/11 01:58:09;;;;;;;52.30;39.47;;;;;;;;;;5018832;28;20183;-69
2023/05/11 02:00:36;;;;;;;50.43;38.50;;;;;;;;;;5036848;28;20260;-69
2023/05/11 02:03:04;;;;;;;47.93;37.70;;;;;;;;;;5037211;28;20249;-68
2023/05/11 02:05:31;;;;;;;51.23;38.70;;;;;;;;;;5037731;28;20175;-69
2023/05/11 02:07:57;;;;;;;51.87;38.50;;;;;;;;;;5038271;28;20172;-70
2023/05/11 02:10:25;;;;;;;52.27;38.57;;;;;;;;;;5036747;28;20261;-70
2023/05/11 02:12:52;;;;;;;47.73;37.47;;;;;;;;;;5037406;28;20180;-69
2023/05/11 02:15:19;;;;;;;50.57;37.00;;;;;;;;;;5037819;28;20171;-69
2023/05/11 02:17:45;;;;;;;47.53;36.90;;;;;;;;;;5037361;28;20251;-69
2023/05/11 02:20:11;;;;;;;46.37;35.87;;;;;;;;;;5019209;28;20218;-69
2023/05/11 02:22:38;;;;;;;44.87;34.57;;;;;;;;;;5037163;28;20229;-69
2023/05/11 02:25:05;;;;;;;47.87;34.77;;;;;;;;;;5018919;28;20171;-69
2023/05/11 02:27:31;;;;;;;44.37;34.27;;;;;;;;;;5036495;28;20175;-69
2023/05/11 02:29:57;;;;;;;48.07;35.97;;;;;;;;;;5036671;28;20188;-69
2023/05/11 02:32:24;;;;;;;44.23;33.63;;;;;;;;;;5036619;28;20182;-69
2023/05/11 02:35:00;;;;;;;47.67;34.07;;;;;;;;;;5018632;28;20542;-69
2023/05/11 02:37:27;;;;;;;46.53;32.80;;;;;;;;;;5036884;28;20175;-68
2023/05/11 02:39:57;;;;;;;48.20;33.20;;;;;;;;;;5036670;28;20265;-69
2023/05/11 02:42:24;;;;;;;42.90;32.37;;;;;;;;;;5035751;28;20641;-69
2023/05/11 02:44:54;;;;;;;44.63;33.67;;;;;;;;;;5019119;28;20641;-70
2023/05/11 02:47:22;;;;;;;42.93;32.73;;;;;;;;;;5018760;28;20179;-70
2023/05/11 02:49:52;;;;;;;44.53;33.33;;;;;;;;;;5036267;28;20206;-70
2023/05/11 02:52:19;;;;;;;47.33;33.43;;;;;;;;;;5019662;28;20238;-70
2023/05/11 02:54:45;;;;;;;48.23;35.23;;;;;;;;;;5036453;28;20183;-70
2023/05/11 02:57:11;;;;;;;45.37;34.83;;;;;;;;;;5036700;28;20206;-70
2023/05/11 02:59:37;;;;;;;49.80;36.97;;;;;;;;;;5018552;28;20210;-70
2023/05/11 03:02:03;;;;;;;50.40;36.10;;;;;;;;;;5018475;28;20568;-69
2023/05/11 03:04:29;;;;;;;48.40;35.77;;;;;;;;;;5018591;28;20262;-70
2023/05/11 03:06:55;;;;;;;51.60;36.37;;;;;;;;;;5018833;28;20550;-70
2023/05/11 03:09:21;;;;;;;50.70;37.33;;;;;;;;;;5018172;28;20179;-70
2023/05/11 03:11:47;;;;;;;56.47;38.50;;;;;;;;;;5018170;28;20194;-70
2023/05/11 03:14:13;;;;;;;59.70;40.50;;;;;;;;;;5036037;28;20191;-70
2023/05/11 03:16:40;;;;;;;57.20;39.87;;;;;;;;;;5035836;28;20202;-70
2023/05/11 03:19:07;;;;;;;59.87;41.13;;;;;;;;;;5035824;28;20633;-70
2023/05/11 03:21:33;;;;;;;68.27;41.50;;;;;;;;;;5018174;28;20559;-70
2023/05/11 03:24:00;;;;;;;64.07;42.07;;;;;;;;;;5035639;28;20202;-70
2023/05/11 03:26:28;;;;;;;61.77;41.43;;;;;;;;;;5035751;28;20179;-72
2023/05/11 03:28:55;;;;;;;64.70;44.60;;;;;;;;;;5035768;28;20241;-70
2023/05/11 03:31:21;;;;;;;65.27;44.53;;;;;;;;;;5036172;28;20203;-70
2023/05/11 03:33:47;;;;;;;70.83;46.23;;;;;;;;;;5018019;28;20544;-70
2023/05/11 03:36:14;;;;;;;74.40;45.77;;;;;;;;;;5017588;28;20536;-70
2023/05/11 03:38:40;;;;;;;70.63;44.57;;;;;;;;;;5035780;28;20518;-70
2023/05/11 03:41:06;;;;;;;74.80;48.37;;;;;;;;;;5017724;28;20226;-70
2023/05/11 03:43:34;;;;;;;73.17;46.80;;;;;;;;;;5017854;28;20178;-70
2023/05/11 03:46:00;;;;;;;74.63;47.17;;;;;;;;;;5035596;28;20229;-69
2023/05/11 03:48:26;;;;;;;73.43;46.63;;;;;;;;;;5035512;28;20167;-70
2023/05/11 03:50:53;;;;;;;73.93;46.50;;;;;;;;;;5035141;28;20664;-70
2023/05/11 03:53:19;;;;;;;74.73;47.03;;;;;;;;;;5035030;28;20206;-70
2023/05/11 03:55:45;;;;;;;75.27;46.53;;;;;;;;;;5017447;28;20627;-70
2023/05/11 03:58:11;;;;;;;74.87;46.87;;;;;;;;;;5034851;28;20183;-70
2023/05/11 04:00:41;;;;;;;73.57;46.90;;;;;;;;;;5035027;28;20603;-70
2023/05/11 04:03:08;;;;;;;75.20;46.23;;;;;;;;;;5035667;28;20254;-69
2023/05/11 04:05:34;;;;;;;74.03;46.20;;;;;;;;;;5017311;28;20176;-70
2023/05/11 04:08:00;;;;;;;79.43;47.63;;;;;;;;;;5019957;28;20559;-70
2023/05/11 04:10:26;;;;;;;90.30;50.83;;;;;;;;;;5020948;28;20218;-70
2023/05/11 04:12:52;;;;;;;85.80;49.30;;;;;;;;;;5020219;28;20194;-70
2023/05/11 04:15:18;;;;;;;88.80;51.63;;;;;;;;;;5036096;28;20179;-70
2023/05/11 04:17:44;;;;;;;89.40;52.53;;;;;;;;;;5016629;28;20277;-70
2023/05/11 04:20:10;;;;;;;87.20;51.23;;;;;;;;;;5034510;28;20215;-69
2023/05/11 04:22:36;;;;;;;88.60;50.97;;;;;;;;;;5035369;28;20187;-70
2023/05/11 04:25:03;;;;;;;90.93;51.37;;;;;;;;;;5034994;28;20179;-70
2023/05/11 04:27:32;;;;;;;89.87;51.00;;;;;;;;;;5016922;28;20179;-70
2023/05/11 04:29:58;;;;;;;91.30;50.97;;;;;;;;;;5016705;28;20237;-70
2023/05/11 04:32:24;;;;;;;87.70;49.80;;;;;;;;;;5034702;28;20582;-70
2023/05/11 04:34:50;;;;;;;90.57;51.77;;;;;;;;;;5016740;28;20179;-70
2023/05/11 04:37:16;;;;;;;88.23;49.83;;;;;;;;;;5017546;28;20241;-70
2023/05/11 04:39:42;;;;;;;91.40;51.57;;;;;;;;;;5034283;28;20404;-70
2023/05/11 04:42:08;;;;;;;90.83;50.67;;;;;;;;;;5017384;28;20198;-70
2023/05/11 04:44:34;;;;;;;85.10;49.30;;;;;;;;;;5034781;28;20183;-70
2023/05/11 04:47:00;;;;;;;94.77;49.03;;;;;;;;;;5034995;28;20254;-69
2023/05/11 04:49:26;;;;;;;87.30;50.10;;;;;;;;;;5034460;28;20605;-70
2023/05/11 04:51:52;;;;;;;78.43;47.37;;;;;;;;;;5017539;28;20183;-69
2023/05/11 04:54:30;;;;;;;84.67;49.30;;;;;;;;;;5054258;28;20218;-69
2023/05/11 04:56:56;;;;;;;86.07;50.23;;;;;;;;;;5036897;28;20174;-69
2023/05/11 04:59:22;;;;;;;88.77;52.03;;;;;;;;;;5036957;28;20213;-69
2023/05/11 05:01:48;;;;;;;84.77;50.73;;;;;;;;;;5055448;28;20215;-69
2023/05/11 05:04:15;;;;;;;84.30;48.67;;;;;;;;;;5054770;28;20268;-69
2023/05/11 05:06:41;;;;;;;93.13;50.40;;;;;;;;;;5054164;28;20204;-69
2023/05/11 05:09:07;;;;;;;95.00;52.27;;;;;;;;;;5036753;28;20220;-69
2023/05/11 05:11:33;;;;;;;92.27;51.37;;;;;;;;;;5055064;28;20174;-69
2023/05/11 05:13:59;;;;;;;90.33;50.63;;;;;;;;;;5053576;28;20205;-69
2023/05/11 05:16:25;;;;;;;94.50;51.13;;;;;;;;;;5035301;28;20183;-69
2023/05/11 05:18:51;;;;;;;96.00;49.93;;;;;;;;;;5035153;28;20209;-69
2023/05/11 05:21:17;;;;;;;91.27;50.13;;;;;;;;;;5053264;28;20263;-69
2023/05/11 05:23:43;;;;;;;92.43;52.27;;;;;;;;;;5052952;28;20194;-70
2023/05/11 05:26:08;;;;;;;92.50;52.43;;;;;;;;;;5053862;28;20530;-69
2023/05/11 05:28:34;;;;;;;88.00;51.27;;;;;;;;;;5036702;28;20240;-69
2023/05/11 05:31:00;;;;;;;90.23;52.87;;;;;;;;;;5054161;28;20227;-69
2023/05/11 05:33:26;;;;;;;87.83;50.43;;;;;;;;;;5034944;28;20575;-70
2023/05/11 05:35:52;;;;;;;89.33;51.73;;;;;;;;;;5052988;28;20172;-69
2023/05/11 05:38:19;;;;;;;84.53;50.47;;;;;;;;;;5034908;28;20701;-70
2023/05/11 05:40:46;;;;;;;95.27;52.23;;;;;;;;;;5052980;28;20578;-70
2023/05/11 05:43:12;;;;;;;90.70;52.93;;;;;;;;;;5052990;28;20221;-71
2023/05/11 05:45:38;;;;;;;87.90;54.03;;;;;;;;;;5053074;28;20183;-69
2023/05/11 05:48:04;;;;;;;87.97;53.03;;;;;;;;;;5035606;28;20179;-69
2023/05/11 05:50:31;;;;;;;90.17;51.70;;;;;;;;;;5052641;28;20178;-69
2023/05/11 05:52:57;;;;;;;87.80;51.87;;;;;;;;;;5052668;28;20702;-70
2023/05/11 05:55:23;;;;;;;86.70;51.17;;;;;;;;;;5034842;28;20213;-70
2023/05/11 05:57:49;;;;;;;92.90;53.90;;;;;;;;;;5034814;28;20214;-69
2023/05/11 06:00:16;;;;;;;89.37;53.00;;;;;;;;;;5052789;28;20205;-68
2023/05/11 06:02:42;;;;;;;81.43;51.60;;;;;;;;;;5052570;28;20192;-69
2023/05/11 06:05:08;;;;;;;72.73;47.10;;;;;;;;;;5052657;28;20254;-69
2023/05/11 06:07:34;;;;;;;72.47;46.97;;;;;;;;;;5052866;28;20355;-69
2023/05/11 06:10:00;;;;;;;71.23;47.03;;;;;;;;;;5052551;28;20664;-69
2023/05/11 06:12:26;;;;;;;66.20;46.60;;;;;;;;;;5052441;28;20207;-69
2023/05/11 06:14:52;;;;;;;65.07;46.63;;;;;;;;;;5052474;28;20178;-69
2023/05/11 06:17:18;;;;;;;64.27;45.90;;;;;;;;;;5055130;28;20206;-68
2023/05/11 06:19:43;;;;;;;59.30;43.87;;;;;;;;;;5055874;28;20213;-69
2023/05/11 06:22:09;;;;;;;55.40;40.80;;;;;;;;;;5037989;28;20223;-69
2023/05/11 06:24:35;;;;;;;55.97;40.83;;;;;;;;;;5038044;28;20205;-69
2023/05/11 06:27:01;;;;;;;55.73;40.40;;;;;;;;;;5055940;28;20178;-69
2023/05/11 06:29:27;;;;;;;52.77;40.57;;;;;;;;;;5055929;28;20265;-69
2023/05/11 06:31:54;;;;;;;50.57;39.87;;;;;;;;;;5055892;28;20261;-68
2023/05/11 06:34:20;;;;;;;51.93;39.53;;;;;;;;;;5037870;28;20267;-69
2023/05/11 06:36:47;;;;;;;51.93;39.67;;;;;;;;;;5037859;28;20190;-69
2023/05/11 06:39:13;;;;;;;48.37;39.47;;;;;;;;;;5055832;28;20559;-69
2023/05/11 06:41:39;;;;;;;53.10;38.77;;;;;;;;;;5055668;28;20198;-69
2023/05/11 06:44:05;;;;;;;49.23;38.43;;;;;;;;;;5055648;28;20722;-69
2023/05/11 06:46:31;;;;;;;50.67;39.20;;;;;;;;;;5037695;28;20196;-69
2023/05/11 06:48:57;;;;;;;53.73;38.90;;;;;;;;;;5037664;28;20628;-69
2023/05/11 06:51:23;;;;;;;52.83;39.70;;;;;;;;;;5055734;28;20201;-69
2023/05/11 06:53:49;;;;;;;54.70;39.37;;;;;;;;;;5037318;28;20218;-69
2023/05/11 06:56:15;;;;;;;52.60;39.07;;;;;;;;;;5055526;28;20694;-69
2023/05/11 06:58:42;;;;;;;53.73;38.20;;;;;;;;;;5037298;28;20625;-69
2023/05/11 07:01:08;;;;;;;47.53;37.07;;;;;;;;;;5055787;28;20206;-68
2023/05/11 07:03:34;;;;;;;47.70;35.83;;;;;;;;;;5037209;28;20198;-69
2023/05/11 07:06:00;;;;;;;44.50;37.23;;;;;;;;;;5055076;28;20171;-69
2023/05/11 07:08:26;;;;;;;48.77;38.03;;;;;;;;;;5037065;28;20190;-69
2023/05/11 07:10:53;;;;;;;45.57;36.40;;;;;;;;;;5054958;28;20175;-69
2023/05/11 07:13:19;;;;;;;46.07;35.07;;;;;;;;;;5055029;28;20198;-69
2023/05/11 07:15:45;;;;;;;41.33;34.23;;;;;;;;;;5036991;28;20184;-69
2023/05/11 07:18:11;;;;;;;38.47;33.23;;;;;;;;;;5054854;28;20641;-69
2023/05/11 07:20:38;;;;;;;35.30;29.80;;;;;;;;;;5036893;28;20202;-69
2023/05/11 07:23:04;;;;;;;33.33;29.67;;;;;;;;;;5054625;28;20205;-68
2023/05/11 07:25:31;;;;;;;33.13;29.23;;;;;;;;;;5054972;28;20167;-69
2023/05/11 07:27:57;;;;;;;34.77;30.27;;;;;;;;;;5054723;28;20166;-69
2023/05/11 07:30:24;;;;;;;34.83;29.73;;;;;;;;;;5055155;28;20209;-69
2023/05/11 07:32:50;;;;;;;34.03;30.13;;;;;;;;;;5054570;28;20193;-68
2023/05/11 07:35:16;;;;;;;33.73;30.03;;;;;;;;;;5054804;28;20181;-69
2023/05/11 07:37:42;;;;;;;36.03;30.33;;;;;;;;;;5036567;28;20183;-69
2023/05/11 07:40:08;;;;;;;36.17;30.90;;;;;;;;;;5036590;28;20252;-69
2023/05/11 07:42:34;;;;;;;34.57;30.47;;;;;;;;;;5036398;28;20609;-69
2023/05/11 07:45:01;;;;;;;33.93;30.00;;;;;;;;;;5037816;28;20202;-69
2023/05/11 07:47:27;;;;;;;36.27;30.20;;;;;;;;;;5054470;28;20253;-69
2023/05/11 07:49:53;;;;;;;31.23;26.53;;;;;;;;;;5055197;28;20210;-69
2023/05/11 07:52:18;;;;;;;27.77;24.97;;;;;;;;;;5036434;28;20210;-70
2023/05/11 07:54:44;;;;;;;28.57;25.13;;;;;;;;;;5054781;28;20220;-69
2023/05/11 07:57:12;;;;;;;30.20;26.33;;;;;;;;;;5054366;28;20261;-70
2023/05/11 07:59:38;;;;;;;28.93;25.97;;;;;;;;;;5053988;28;20217;-68
2023/05/11 08:02:06;;;;;;;30.17;26.33;;;;;;;;;;5036314;28;20246;-71
2023/05/11 08:04:32;;;;;;;28.73;25.43;;;;;;;;;;5054151;28;20186;-69
2023/05/11 08:06:58;;;;;;;28.73;25.17;;;;;;;;;;5036391;28;20240;-69
2023/05/11 08:09:24;;;;;;;29.07;25.47;;;;;;;;;;5054479;28;20178;-68
2023/05/11 08:11:50;;;;;;;31.07;26.57;;;;;;;;;;5036099;28;20182;-70
2023/05/11 08:14:16;;;;;;;30.80;26.77;;;;;;;;;;5035845;28;20336;-70
2023/05/11 08:16:42;;;;;;;28.83;25.00;;;;;;;;;;5036281;28;20567;-69
2023/05/11 08:19:08;;;;;;;29.67;25.40;;;;;;;;;;5053718;28;20614;-69
2023/05/11 08:21:34;;;;;;;32.60;26.73;;;;;;;;;;5053713;28;20261;-69
2023/05/11 08:24:00;;;;;;;32.83;27.67;;;;;;;;;;5054073;28;20194;-69
2023/05/11 08:26:27;;;;;;;30.03;26.37;;;;;;;;;;5035693;28;20182;-69
2023/05/11 08:28:53;;;;;;;35.77;28.10;;;;;;;;;;5053829;28;20171;-69
2023/05/11 08:31:19;;;;;;;30.83;26.73;;;;;;;;;;5035697;28;20186;-69
2023/05/11 08:33:45;;;;;;;32.07;27.70;;;;;;;;;;5035694;28;20201;-69
2023/05/11 08:36:14;;;;;;;33.83;28.53;;;;;;;;;;5035668;28;20186;-69
2023/05/11 08:38:40;;;;;;;29.97;26.73;;;;;;;;;;5053357;28;20178;-69
2023/05/11 08:41:06;;;;;;;34.67;28.20;;;;;;;;;;5034483;28;20259;-69
2023/05/11 08:43:35;;;;;;;30.87;27.50;;;;;;;;;;5053743;28;20194;-69
2023/05/11 08:46:03;;;;;;;32.33;27.30;;;;;;;;;;5053601;28;20224;-69
2023/05/11 08:48:30;;;;;;;31.60;26.63;;;;;;;;;;5035602;28;20182;-69
2023/05/11 08:50:56;;;;;;;35.87;28.13;;;;;;;;;;5035463;28;20662;-69
2023/05/11 08:53:22;;;;;;;35.97;28.10;;;;;;;;;;5053071;28;20213;-69
2023/05/11 08:55:50;;;;;;;34.83;28.07;;;;;;;;;;5053442;28;20183;-69
2023/05/11 08:58:23;;;;;;;33.30;28.13;;;;;;;;;;5053199;28;20525;-69
2023/05/11 09:00:49;;;;;;;32.53;28.77;;;;;;;;;;5053306;28;20217;-69
2023/05/11 09:03:17;;;;;;;36.90;30.87;;;;;;;;;;5053356;28;20213;-69
2023/05/11 09:05:45;;;;;;;39.43;30.07;;;;;;;;;;5035227;28;20236;-69
2023/05/11 09:08:12;;;;;;;34.47;28.43;;;;;;;;;;5053312;28;20178;-70
2023/05/11 09:10:38;;;;;;;33.83;29.27;;;;;;;;;;5053267;28;20178;-70
2023/05/11 09:13:03;;;;;;;34.80;28.87;;;;;;;;;;5035228;28;20216;-70
2023/05/11 09:15:30;;;;;;;34.90;28.00;;;;;;;;;;5053185;28;20174;-70
2023/05/11 09:17:56;;;;;;;33.27;26.97;;;;;;;;;;5053495;28;20189;-70
2023/05/11 09:20:30;;;;;;;31.00;27.67;;;;;;;;;;5034980;28;20214;-69
2023/05/11 09:22:57;;;;;;;30.70;27.40;;;;;;;;;;5052864;28;20194;-69
2023/05/11 09:25:23;;;;;;;30.83;26.83;;;;;;;;;;5052845;28;20174;-70
2023/05/11 09:27:49;;;;;;;35.13;27.80;;;;;;;;;;5034989;28;20180;-70
2023/05/11 09:30:15;;;;;;;33.53;28.67;;;;;;;;;;5053386;28;20552;-70
2023/05/11 09:32:50;;;;;;;30.73;26.93;;;;;;;;;;5034930;28;20202;-70
2023/05/11 09:35:20;;;;;;;34.00;28.10;;;;;;;;;;5034936;28;20186;-69
2023/05/11 09:38:01;;;;;;;31.57;27.93;;;;;;;;;;5034870;28;20186;-69
2023/05/11 09:40:28;;;;;;;34.77;27.40;;;;;;;;;;5052659;28;20198;-70
2023/05/11 09:42:54;;;;;;;32.60;25.87;;;;;;;;;;5052973;28;20248;-69
2023/05/11 09:45:39;;;;;;;31.97;26.50;;;;;;;;;;5052726;28;20171;-70
2023/05/11 09:48:25;;;;;;;32.13;26.23;;;;;;;;;;5034852;28;20656;-70
2023/05/11 09:50:52;;;;;;;32.57;27.50;;;;;;;;;;5034863;28;20202;-70
2023/05/11 09:53:18;;;;;;;34.07;27.80;;;;;;;;;;5056561;28;20221;-69
2023/05/11 09:55:50;;;;;;;36.03;27.13;;;;;;;;;;5038399;28;20178;-70
2023/05/11 09:58:16;;;;;;;32.13;26.50;;;;;;;;;;5056650;28;20640;-70
2023/05/11 10:00:50;;;;;;;32.00;26.80;;;;;;;;;;5056521;28;20206;-70
2023/05/11 10:03:16;;;;;;;32.73;27.03;;;;;;;;;;5056592;28;20209;-70
2023/05/11 10:05:54;;;;;;;29.90;25.67;;;;;;;;;;5039762;28;20659;-69
2023/05/11 10:08:26;;;;;;;33.03;26.83;;;;;;;;;;5038511;28;20690;-69
2023/05/11 10:10:53;;;;;;;28.57;25.33;;;;;;;;;;5056474;28;20162;-69
2023/05/11 10:13:20;;;;;;;32.10;26.83;;;;;;;;;;5056004;28;20744;-69
2023/05/11 10:15:46;;;;;;;34.00;27.07;;;;;;;;;;5056072;28;20186;-69
2023/05/11 10:18:12;;;;;;;32.03;26.90;;;;;;;;;;5039062;28;20549;-69
2023/05/11 10:20:38;;;;;;;29.80;26.40;;;;;;;;;;5038874;28;20213;-69
2023/05/11 10:23:04;;;;;;;34.77;27.37;;;;;;;;;;5056899;28;20194;-69
2023/05/11 10:25:30;;;;;;;32.27;26.57;;;;;;;;;;5056988;28;20175;-69
2023/05/11 10:27:57;;;;;;;31.17;25.70;;;;;;;;;;5038453;28;20521;-69
2023/05/11 10:30:23;;;;;;;32.87;27.93;;;;;;;;;;5038064;28;20713;-69
2023/05/11 10:32:50;;;;;;;31.17;26.43;;;;;;;;;;5037892;28;20199;-70
2023/05/11 10:35:16;;;;;;;30.93;27.17;;;;;;;;;;5037928;28;20652;-70
2023/05/11 10:37:42;;;;;;;30.30;26.93;;;;;;;;;;5056658;28;20253;-69
2023/05/11 10:40:09;;;;;;;30.30;26.43;;;;;;;;;;5038121;28;20202;-71
2023/05/11 10:42:48;;;;;;;34.33;27.00;;;;;;;;;;5055679;28;20201;-69
2023/05/11 10:45:28;;;;;;;31.03;24.77;;;;;;;;;;5055997;28;20205;-69
2023/05/11 10:48:12;;;;;;;30.80;25.67;;;;;;;;;;5037676;28;20178;-69
2023/05/11 10:50:57;;;;;;;30.40;25.90;;;;;;;;;;5037657;28;20182;-69
2023/05/11 10:53:47;;;;;;;32.23;26.00;;;;;;;;;;5055182;28;20264;-69
2023/05/11 10:58:42;;;;;;;32.17;26.30;;;;;;;;;;4995621;28;20295;-66
2023/05/11 11:01:26;;;;;;;30.60;25.47;;;;;;;;;;4996373;28;20284;-66
2023/05/11 11:04:00;;;;;;;33.50;26.00;;;;;;;;;;4995289;28;20181;-66
2023/05/11 11:06:28;;;;;;;34.87;27.67;;;;;;;;;;4994652;28;20188;-66
2023/05/11 11:08:55;;;;;;;37.17;27.00;;;;;;;;;;4996837;28;20539;-68
2023/05/11 11:11:28;;;;;;;31.20;27.00;;;;;;;;;;4994980;28;20184;-66
2023/05/11 11:13:57;;;;;;;38.47;27.47;;;;;;;;;;4995668;28;20191;-66
2023/05/11 11:16:24;;;;;;;33.67;27.03;;;;;;;;;;4995014;28;20188;-66
2023/05/11 11:18:51;;;;;;;31.87;27.50;;;;;;;;;;4996059;28;20173;-66
2023/05/11 11:21:36;;;;;;;32.10;26.57;;;;;;;;;;4995698;28;20240;-66
2023/05/11 11:24:02;;;;;;;32.87;28.10;;;;;;;;;;4994325;28;20176;-66
2023/05/11 11:26:49;;;;;;;32.50;27.20;;;;;;;;;;4995349;28;20279;-66
2023/05/11 11:29:15;;;;;;;33.57;27.17;;;;;;;;;;4994229;28;20264;-66
2023/05/11 11:31:41;;;;;;;34.63;27.73;;;;;;;;;;4993955;28;20184;-66
2023/05/11 11:34:32;;;;;;;35.57;25.90;;;;;;;;;;4994072;28;20359;-66
2023/05/11 11:36:58;;;;;;;34.67;28.43;;;;;;;;;;4994027;28;20196;-66
2023/05/11 11:39:29;;;;;;;36.73;30.67;;;;;;;;;;4994080;28;20669;-66
2023/05/11 11:42:05;;;;;;;33.93;28.57;;;;;;;;;;4994175;28;20187;-66
2023/05/11 11:44:33;;;;;;;39.07;30.60;;;;;;;;;;4995562;28;20673;-66
2023/05/11 11:47:11;;;;;;;41.13;31.70;;;;;;;;;;4996335;28;20203;-66
2023/05/11 11:49:38;;;;;;;42.10;31.20;;;;;;;;;;5003168;28;20219;-66
2023/05/11 11:52:05;;;;;;;39.43;29.40;;;;;;;;;;5002441;28;20195;-66
2023/05/11 11:54:38;;;;;;;38.67;29.73;;;;;;;;;;4996267;28;20177;-66
2023/05/11 11:57:04;;;;;;;37.87;29.90;;;;;;;;;;4994912;28;20223;-66
2023/05/11 11:59:46;;;;;;;31.93;27.97;;;;;;;;;;4994941;28;20184;-66
2023/05/11 12:02:15;;;;;;;32.63;27.57;;;;;;;;;;4993658;28;20220;-66
2023/05/11 12:04:50;;;;;;;33.53;27.33;;;;;;;;;;4994990;28;20168;-66
2023/05/11 12:07:18;;;;;;;31.37;26.20;;;;;;;;;;4994890;28;20199;-66
2023/05/11 12:09:45;;;;;;;35.93;26.30;;;;;;;;;;4994706;28;20188;-66
2023/05/11 12:12:11;;;;;;;35.43;26.23;;;;;;;;;;4994626;28;20180;-66
2023/05/11 12:14:38;;;;;;;32.30;26.47;;;;;;;;;;4993234;28;20661;-67
2023/05/11 12:17:07;;;;;;;35.23;24.43;;;;;;;;;;4994577;28;20200;-66
2023/05/11 12:19:33;;;;;;;33.10;26.97;;;;;;;;;;4994487;28;20176;-66
2023/05/11 12:21:59;;;;;;;39.73;29.60;;;;;;;;;;4994463;28;20181;-66
2023/05/11 12:24:25;;;;;;;38.13;28.20;;;;;;;;;;4994716;28;20177;-67
2023/05/11 12:26:55;;;;;;;35.50;28.43;;;;;;;;;;4993071;28;20682;-67
2023/05/11 12:29:21;;;;;;;36.93;29.10;;;;;;;;;;4994536;28;20173;-67
2023/05/11 12:31:47;;;;;;;32.37;27.37;;;;;;;;;;4993124;28;20180;-66
2023/05/11 12:34:17;;;;;;;30.63;26.23;;;;;;;;;;4994736;28;20173;-67
2023/05/11 12:36:47;;;;;;;32.20;25.57;;;;;;;;;;4993087;28;20254;-66
2023/05/11 12:39:23;;;;;;;31.63;25.37;;;;;;;;;;4992927;28;20227;-66
2023/05/11 12:41:50;;;;;;;27.67;24.77;;;;;;;;;;4994148;28;20267;-66
2023/05/11 12:44:17;;;;;;;31.10;25.00;;;;;;;;;;4992706;28;20298;-66
2023/05/11 12:46:44;;;;;;;31.53;25.67;;;;;;;;;;4993265;28;20205;-66
2023/05/11 12:49:12;;;;;;;29.67;26.03;;;;;;;;;;4992785;28;20183;-66
2023/05/11 12:51:45;;;;;;;31.77;27.43;;;;;;;;;;4994256;28;20207;-66
2023/05/11 12:54:12;;;;;;;33.93;25.97;;;;;;;;;;4994391;28;20185;-66
2023/05/11 12:56:45;;;;;;;32.47;27.43;;;;;;;;;;4992524;28;20240;-66
2023/05/11 12:59:26;;;;;;;31.67;26.20;;;;;;;;;;4992744;28;20654;-66
2023/05/11 13:01:52;;;;;;;31.07;27.33;;;;;;;;;;4993874;28;20234;-66
2023/05/11 13:04:18;;;;;;;32.53;27.03;;;;;;;;;;4992543;28;20600;-66
2023/05/11 13:06:44;;;;;;;28.90;25.47;;;;;;;;;;4993933;28;20290;-66
2023/05/11 13:09:10;;;;;;;31.67;27.50;;;;;;;;;;4992554;28;20554;-66
2023/05/11 13:11:36;;;;;;;32.73;27.67;;;;;;;;;;4992823;28;20189;-66
2023/05/11 13:14:15;;;;;;;34.00;27.57;;;;;;;;;;4994094;28;20267;-66
2023/05/11 13:16:51;;;;;;;33.00;27.73;;;;;;;;;;4993167;28;20204;-66
2023/05/11 13:19:27;;;;;;;32.47;28.67;;;;;;;;;;4992506;28;20183;-67
2023/05/11 13:21:53;;;;;;;32.43;27.50;;;;;;;;;;4992698;28;20555;-66
2023/05/11 13:24:22;;;;;;;34.53;27.40;;;;;;;;;;4994036;28;20168;-66
2023/05/11 13:26:48;;;;;;;31.00;26.70;;;;;;;;;;4995431;28;20200;-66
2023/05/11 13:29:14;;;;;;;31.70;25.33;;;;;;;;;;4996359;28;20172;-66
2023/05/11 13:31:50;;;;;;;31.53;25.60;;;;;;;;;;4997736;28;20180;-66
2023/05/11 13:34:16;;;;;;;32.47;25.57;;;;;;;;;;4997744;28;20172;-66
2023/05/11 13:36:42;;;;;;;29.90;25.80;;;;;;;;;;4997661;28;20201;-66
2023/05/11 13:39:08;;;;;;;27.70;24.67;;;;;;;;;;4997509;28;20311;-66
2023/05/11 13:41:35;;;;;;;27.63;24.40;;;;;;;;;;4997231;28;20594;-66
2023/05/11 13:44:01;;;;;;;25.80;22.47;;;;;;;;;;4996082;28;20271;-66
2023/05/11 13:46:27;;;;;;;27.57;22.57;;;;;;;;;;4995896;28;20654;-66
2023/05/11 13:48:53;;;;;;;28.10;23.07;;;;;;;;;;4997874;28;20646;-66
2023/05/11 13:51:20;;;;;;;27.13;22.77;;;;;;;;;;4997133;28;20271;-66
2023/05/11 13:53:46;;;;;;;25.83;22.83;;;;;;;;;;4997196;28;20188;-66
2023/05/11 13:56:12;;;;;;;26.67;23.47;;;;;;;;;;4995711;28;20207;-66
2023/05/11 13:58:38;;;;;;;25.57;22.70;;;;;;;;;;4997070;28;20215;-66
2023/05/11 14:01:04;;;;;;;31.93;24.43;;;;;;;;;;4997403;28;20200;-67
2023/05/11 14:03:30;;;;;;;26.17;22.00;;;;;;;;;;4997114;28;20646;-66
2023/05/11 14:05:57;;;;;;;26.30;23.50;;;;;;;;;;4997230;28;20185;-66
2023/05/11 14:08:23;;;;;;;27.43;23.23;;;;;;;;;;4996022;28;20208;-68
2023/05/11 14:10:49;;;;;;;28.03;23.53;;;;;;;;;;4997005;28;20268;-67
2023/05/11 14:13:15;;;;;;;28.00;23.30;;;;;;;;;;4996858;28;20184;-67
2023/05/11 14:15:41;;;;;;;28.13;24.43;;;;;;;;;;4995606;28;20180;-66
2023/05/11 14:18:07;;;;;;;27.83;23.50;;;;;;;;;;4997358;28;20211;-67
2023/05/11 14:20:36;;;;;;;25.10;22.43;;;;;;;;;;4996718;28;20201;-66
2023/05/11 14:23:02;;;;;;;26.67;22.73;;;;;;;;;;4996821;28;20181;-66